createdAt,value
2023-03-15T00:02:32.198Z,3.08
2023-03-15T00:05:39.538Z,3.01
2023-03-15T00:08:42.249Z,2.98
2023-03-15T00:15:29.682Z,2.79
2023-03-15T00:18:32.742Z,2.79
2023-03-15T00:21:42.072Z,2.73
2023-03-15T00:24:45.624Z,2.71
2023-03-15T00:27:54.748Z,2.70
2023-03-15T00:31:16.957Z,2.66
2023-03-15T00:34:29.669Z,2.69
2023-03-15T00:37:33.616Z,2.66
2023-03-15T00:40:41.820Z,2.65
2023-03-15T00:43:58.511Z,2.57
2023-03-15T00:47:11.908Z,2.59
2023-03-15T00:50:15.390Z,2.61
2023-03-15T00:53:22.148Z,2.60
2023-03-15T00:56:30.335Z,2.63
2023-03-15T00:59:36.778Z,2.64
2023-03-15T01:02:44.132Z,2.66
2023-03-15T01:05:47.293Z,2.68
2023-03-15T01:08:49.875Z,2.71
2023-03-15T01:12:02.019Z,2.64
2023-03-15T01:15:09.426Z,2.68
2023-03-15T01:18:14.690Z,2.69
2023-03-15T01:21:30.198Z,2.67
2023-03-15T01:24:34.182Z,2.72
2023-03-15T01:27:36.851Z,2.71
2023-03-15T01:30:38.767Z,2.70
2023-03-15T01:33:42.998Z,2.75
2023-03-15T01:36:56.937Z,2.78
2023-03-15T01:43:34.199Z,2.73
2023-03-15T01:46:39.348Z,2.70
2023-03-15T01:50:12.806Z,2.65
2023-03-15T01:53:17.416Z,2.42
2023-03-15T01:56:31.920Z,2.25
2023-03-15T01:59:38.457Z,2.08
2023-03-15T02:03:09.854Z,1.93
2023-03-15T02:06:20.614Z,1.70
2023-03-15T02:10:08.062Z,1.52
2023-03-15T02:13:15.755Z,1.41
2023-03-15T02:16:21.007Z,1.31
2023-03-15T02:19:49.450Z,1.27
2023-03-15T02:23:05.895Z,1.24
2023-03-15T02:26:17.906Z,1.20
2023-03-15T02:29:23.924Z,1.15
2023-03-15T02:32:28.286Z,1.12
2023-03-15T02:35:34.253Z,1.12
2023-03-15T02:38:39.407Z,1.15
2023-03-15T02:41:47.968Z,1.16
2023-03-15T02:44:53.577Z,1.14
2023-03-15T02:47:55.557Z,1.11
2023-03-15T02:51:02.989Z,1.09
2023-03-15T02:54:05.256Z,1.05
2023-03-15T02:57:11.984Z,1.06
2023-03-15T03:00:14.620Z,1.01
2023-03-15T03:03:21.727Z,0.96
2023-03-15T03:06:24.700Z,0.93
2023-03-15T03:09:26.859Z,0.96
2023-03-15T03:12:31.796Z,0.97
2023-03-15T03:15:35.804Z,0.92
2023-03-15T03:18:39.522Z,0.93
2023-03-15T03:21:48.594Z,0.91
2023-03-15T03:24:54.213Z,0.92
2023-03-15T03:27:59.964Z,0.88
2023-03-15T03:31:05.537Z,0.95
2023-03-15T03:34:10.240Z,0.91
2023-03-15T03:37:11.898Z,0.86
2023-03-15T03:40:26.670Z,0.92
2023-03-15T03:43:33.462Z,0.93
2023-03-15T03:46:47.953Z,0.94
2023-03-15T03:49:52.647Z,0.98
2023-03-15T03:53:04.473Z,0.98
2023-03-15T03:56:12.229Z,1.00
2023-03-15T03:59:15.660Z,1.00
2023-03-15T04:02:26.249Z,1.02
2023-03-15T04:05:36.869Z,1.06
2023-03-15T04:08:41.771Z,1.10
2023-03-15T04:11:54.122Z,1.11
2023-03-15T04:14:57.421Z,1.12
2023-03-15T04:18:13.197Z,1.15
2023-03-15T04:21:23.387Z,1.17
2023-03-15T04:24:39.954Z,1.17
2023-03-15T04:28:15.680Z,1.15
2023-03-15T04:31:27.704Z,1.18
2023-03-15T04:34:58.920Z,1.20
2023-03-15T04:38:28.902Z,1.19
2023-03-15T04:41:57.776Z,1.17
2023-03-15T04:45:21.938Z,1.15
2023-03-15T04:49:00.337Z,1.12
2023-03-15T04:52:22.285Z,1.11
2023-03-15T04:55:45.330Z,1.04
2023-03-15T04:59:22.243Z,1.08
2023-03-15T05:02:58.282Z,1.06
2023-03-15T05:06:21.421Z,1.04
2023-03-15T05:09:48.010Z,0.97
2023-03-15T05:13:19.026Z,0.99
2023-03-15T05:16:45.173Z,0.98
2023-03-15T05:20:19.288Z,0.97
2023-03-15T05:23:28.918Z,0.94
2023-03-15T05:26:56.597Z,0.94
2023-03-15T05:30:21.687Z,0.94
2023-03-15T05:33:56.079Z,0.91
2023-03-15T05:37:07.858Z,0.85
2023-03-15T05:40:30.775Z,0.89
2023-03-15T05:44:00.101Z,0.86
2023-03-15T05:47:22.589Z,0.85
2023-03-15T05:50:50.823Z,0.87
2023-03-15T05:54:20.575Z,0.87
2023-03-15T05:57:35.287Z,0.88
2023-03-15T06:00:58.563Z,0.92
2023-03-15T06:04:23.391Z,0.95
2023-03-15T06:07:26.569Z,0.96
2023-03-15T06:10:28.358Z,1.00
2023-03-15T06:13:33.272Z,1.04
2023-03-15T06:16:42.321Z,1.04
2023-03-15T06:19:44.174Z,1.10
2023-03-15T06:22:52.406Z,1.14
2023-03-15T06:26:07.396Z,1.17
2023-03-15T06:29:10.623Z,1.20
2023-03-15T06:32:13.301Z,1.21
2023-03-15T06:35:23.536Z,1.26
2023-03-15T06:38:29.049Z,1.28
2023-03-15T06:41:32.664Z,1.30
2023-03-15T06:44:43.807Z,1.35
2023-03-15T06:47:46.561Z,1.39
2023-03-15T06:50:53.271Z,1.41
2023-03-15T06:53:57.995Z,1.42
2023-03-15T06:57:00.999Z,1.40
2023-03-15T07:00:11.818Z,1.43
2023-03-15T07:03:14.050Z,1.45
2023-03-15T07:06:16.767Z,1.45
2023-03-15T07:09:18.957Z,1.45
2023-03-15T07:12:22.057Z,1.48
2023-03-15T07:15:27.491Z,1.50
2023-03-15T07:18:32.169Z,1.50
2023-03-15T07:21:36.746Z,1.53
2023-03-15T07:24:40.952Z,1.52
2023-03-15T07:27:45.445Z,1.49
2023-03-15T07:31:00.636Z,1.50
2023-03-15T07:34:03.196Z,1.55
2023-03-15T07:37:06.863Z,1.60
2023-03-15T07:40:13.303Z,1.63
2023-03-15T07:43:25.306Z,1.67
2023-03-15T07:46:41.248Z,1.72
2023-03-15T07:49:43.691Z,1.80
2023-03-15T07:52:47.171Z,1.87
2023-03-15T07:55:51.634Z,1.89
2023-03-15T07:58:55.250Z,1.92
2023-03-15T08:02:02.773Z,1.87
2023-03-15T08:05:06.627Z,1.95
2023-03-15T08:08:10.162Z,1.98
2023-03-15T08:11:12.186Z,2.03
2023-03-15T08:14:18.038Z,2.06
2023-03-15T08:17:32.702Z,2.08
2023-03-15T08:20:42.694Z,2.10
2023-03-15T08:23:46.689Z,2.11
2023-03-15T08:26:53.365Z,2.17
2023-03-15T08:29:57.584Z,2.24
2023-03-15T08:33:06.190Z,2.33
2023-03-15T08:36:13.876Z,2.42
2023-03-15T08:39:21.925Z,2.47
2023-03-15T08:42:24.527Z,2.51
2023-03-15T08:45:27.466Z,2.54
2023-03-15T08:48:29.829Z,2.59
2023-03-15T08:51:31.932Z,2.61
2023-03-15T08:54:33.539Z,2.63
2023-03-15T08:57:38.309Z,2.66
2023-03-15T09:00:39.965Z,2.72
2023-03-15T09:03:42.561Z,2.73
2023-03-15T09:06:44.184Z,2.72
2023-03-15T09:09:48.272Z,2.88
2023-03-15T09:12:53.574Z,2.98
2023-03-15T09:15:57.259Z,3.04
2023-03-15T09:18:59.404Z,3.11
2023-03-15T09:22:16.136Z,3.17
2023-03-15T09:25:25.957Z,3.21
2023-03-15T09:28:28.191Z,3.23
2023-03-15T09:31:32.101Z,3.26
2023-03-15T09:34:41.962Z,3.30
2023-03-15T09:37:45.303Z,3.36
2023-03-15T09:40:51.719Z,3.45
2023-03-15T09:44:13.440Z,3.49
2023-03-15T09:47:34.260Z,3.65
2023-03-15T09:50:48.952Z,3.67
2023-03-15T09:54:15.495Z,3.69
2023-03-15T09:57:24.716Z,3.72
2023-03-15T10:00:45.748Z,3.72
2023-03-15T10:03:53.454Z,3.77
2023-03-15T10:07:01.363Z,3.79
2023-03-15T10:10:05.507Z,3.77
2023-03-15T10:13:27.618Z,3.80
2023-03-15T10:16:42.055Z,3.80
2023-03-15T10:20:02.193Z,3.84
2023-03-15T10:23:14.626Z,3.88
2023-03-15T10:26:27.054Z,3.92
2023-03-15T10:29:31.994Z,4.02
2023-03-15T10:32:41.128Z,4.03
2023-03-15T10:35:43.681Z,4.03
2023-03-15T10:38:46.252Z,4.08
2023-03-15T10:41:51.634Z,4.19
2023-03-15T10:44:58.989Z,4.22
2023-03-15T10:48:02.931Z,4.26
2023-03-15T10:51:31.565Z,4.29
2023-03-15T10:54:38.023Z,4.31
2023-03-15T10:57:52.654Z,4.38
2023-03-15T11:01:08.633Z,4.43
2023-03-15T11:04:25.229Z,4.47
2023-03-15T11:07:30.496Z,4.49
2023-03-15T11:10:34.835Z,4.53
2023-03-15T11:13:40.569Z,4.55
2023-03-15T11:16:53.259Z,4.57
2023-03-15T11:20:00.149Z,4.66
2023-03-15T11:23:19.438Z,4.77
2023-03-15T11:26:33.362Z,4.84
2023-03-15T11:29:45.875Z,4.85
2023-03-15T11:32:50.947Z,4.87
2023-03-15T11:35:58.292Z,4.86
2023-03-15T11:39:04.066Z,4.94
2023-03-15T11:42:15.100Z,4.95
2023-03-15T11:45:41.370Z,4.93
2023-03-15T11:49:28.295Z,4.91
2023-03-15T11:52:31.448Z,4.90
2023-03-15T11:55:37.831Z,4.95
2023-03-15T11:58:46.696Z,5.04
2023-03-15T12:01:57.154Z,5.09
2023-03-15T12:05:17.627Z,5.11
2023-03-15T12:08:44.311Z,5.08
2023-03-15T12:11:49.116Z,5.14
2023-03-15T12:15:16.379Z,5.21
2023-03-15T12:18:23.051Z,5.28
2023-03-15T12:21:39.310Z,5.31
2023-03-15T12:24:51.947Z,5.38
2023-03-15T12:28:02.364Z,5.48
2023-03-15T12:31:13.346Z,5.61
2023-03-15T12:34:27.646Z,5.64
2023-03-15T12:37:49.046Z,5.62
2023-03-15T12:41:01.830Z,5.62
2023-03-15T12:44:40.102Z,5.60
2023-03-15T12:47:55.326Z,5.62
2023-03-15T12:51:00.189Z,5.66
2023-03-15T12:54:06.463Z,5.68
2023-03-15T12:57:16.385Z,5.75
2023-03-15T13:00:23.567Z,5.79
2023-03-15T13:03:31.468Z,5.82
2023-03-15T13:07:00.987Z,5.84
2023-03-15T13:10:42.195Z,5.95
2023-03-15T13:14:11.917Z,6.01
2023-03-15T13:17:56.820Z,6.04
2023-03-15T13:21:09.119Z,6.08
2023-03-15T13:24:29.377Z,6.18
2023-03-15T13:27:48.531Z,6.26
2023-03-15T13:30:55.402Z,6.20
2023-03-15T13:34:16.002Z,6.23
2023-03-15T13:37:28.234Z,6.38
2023-03-15T13:40:32.472Z,6.38
2023-03-15T13:43:38.593Z,6.39
2023-03-15T13:46:40.450Z,6.39
2023-03-15T13:49:42.710Z,6.39
2023-03-15T13:52:45.634Z,6.41
2023-03-15T13:55:51.923Z,6.42
2023-03-15T13:58:53.728Z,6.33
2023-03-15T14:01:57.240Z,6.36
2023-03-15T14:05:09.383Z,6.40
2023-03-15T14:08:25.846Z,6.48
2023-03-15T14:11:37.527Z,6.48
2023-03-15T14:14:49.731Z,6.46
2023-03-15T14:17:59.599Z,6.45
2023-03-15T14:21:07.448Z,6.44
2023-03-15T14:24:21.447Z,6.40
2023-03-15T14:27:28.210Z,6.42
2023-03-15T14:30:33.751Z,6.49
2023-03-15T14:33:43.782Z,6.55
2023-03-15T14:36:46.109Z,6.62
2023-03-15T14:39:48.338Z,6.66
2023-03-15T14:42:50.948Z,6.64
2023-03-15T14:45:52.629Z,6.67
2023-03-15T14:48:54.325Z,6.52
2023-03-15T14:52:03.524Z,6.54
2023-03-15T14:55:05.846Z,6.53
2023-03-15T14:58:17.426Z,6.50
2023-03-15T15:01:24.074Z,6.45
2023-03-15T15:04:33.745Z,6.41
2023-03-15T15:07:35.848Z,6.38
2023-03-15T15:10:37.483Z,6.36
2023-03-15T15:13:41.668Z,6.38
2023-03-15T15:16:44.072Z,6.33
2023-03-15T15:19:47.137Z,6.28
2023-03-15T15:22:50.279Z,6.19
2023-03-15T15:25:56.845Z,6.15
2023-03-15T15:28:59.334Z,5.98
2023-03-15T15:32:01.005Z,5.96
2023-03-15T15:35:03.486Z,5.83
2023-03-15T15:38:12.718Z,5.70
2023-03-15T15:41:17.617Z,5.57
2023-03-15T15:44:20.854Z,5.53
2023-03-15T15:47:22.448Z,5.40
2023-03-15T15:50:24.669Z,5.34
2023-03-15T15:53:31.907Z,5.32
2023-03-15T15:56:49.394Z,5.28
2023-03-15T15:59:51.464Z,5.30
2023-03-15T16:02:55.755Z,5.28
2023-03-15T16:05:57.931Z,5.25
2023-03-15T16:09:00.513Z,5.14
2023-03-15T16:12:02.219Z,5.09
2023-03-15T16:15:04.052Z,5.05
2023-03-15T16:18:10.806Z,5.02
2023-03-15T16:21:28.273Z,5.00
2023-03-15T16:24:35.375Z,4.98
2023-03-15T16:27:38.446Z,4.96
2023-03-15T16:30:41.004Z,4.96
2023-03-15T16:33:43.077Z,4.91
2023-03-15T16:36:49.345Z,4.86
2023-03-15T16:39:57.373Z,4.82
2023-03-15T16:42:59.455Z,4.81
2023-03-15T16:46:01.066Z,4.81
2023-03-15T16:49:02.938Z,4.82
2023-03-15T16:52:09.408Z,4.79
2023-03-15T16:55:15.776Z,4.81
2023-03-15T16:58:20.334Z,4.79
2023-03-15T17:01:25.815Z,4.81
2023-03-15T17:04:28.073Z,4.79
2023-03-15T17:07:38.184Z,4.75
2023-03-15T17:10:41.209Z,4.77
2023-03-15T17:13:43.046Z,4.77
2023-03-15T17:16:45.280Z,4.72
2023-03-15T17:19:48.227Z,4.73
2023-03-15T17:22:52.750Z,4.72
2023-03-15T17:25:54.357Z,4.73
2023-03-15T17:28:57.737Z,4.67
2023-03-15T17:31:59.447Z,4.72
2023-03-15T17:35:01.631Z,4.69
2023-03-15T17:38:06.398Z,4.63
2023-03-15T17:41:50.447Z,4.59
2023-03-15T17:44:52.096Z,4.48
2023-03-15T17:47:54.285Z,4.46
2023-03-15T17:50:55.925Z,4.43
2023-03-15T17:53:59.566Z,4.38
2023-03-15T17:57:01.909Z,4.25
2023-03-15T18:00:04.300Z,4.22
2023-03-15T18:03:14.002Z,4.19
2023-03-15T18:06:18.378Z,4.14
2023-03-15T18:09:22.166Z,4.13
2023-03-15T18:12:24.755Z,4.11
2023-03-15T18:15:26.336Z,4.07
2023-03-15T18:18:27.985Z,4.03
2023-03-15T18:21:30.316Z,4.03
2023-03-15T18:24:34.257Z,3.96
2023-03-15T18:27:35.882Z,3.91
2023-03-15T18:30:38.052Z,3.89
2023-03-15T18:33:40.663Z,3.87
2023-03-15T18:36:42.783Z,3.82
2023-03-15T18:39:44.664Z,3.79
2023-03-15T18:42:46.756Z,3.78
2023-03-15T18:45:48.401Z,3.77
2023-03-15T18:49:12.364Z,3.76
2023-03-15T18:52:15.924Z,3.78
2023-03-15T18:55:20.712Z,3.77
2023-03-15T18:58:22.881Z,3.75
2023-03-15T19:01:34.865Z,3.74
2023-03-15T19:04:39.604Z,3.74
2023-03-15T19:07:44.457Z,3.70
2023-03-15T19:10:47.942Z,3.66
2023-03-15T19:14:02.378Z,3.69
2023-03-15T19:17:04.933Z,3.66
2023-03-15T19:20:14.887Z,3.66
2023-03-15T19:23:16.519Z,3.67
2023-03-15T19:26:19.019Z,3.68
2023-03-15T19:29:21.314Z,3.67
2023-03-15T19:32:24.328Z,3.66
2023-03-15T19:35:26.845Z,3.63
2023-03-15T19:38:29.426Z,3.64
2023-03-15T19:41:31.629Z,3.61
2023-03-15T19:44:33.758Z,3.58
2023-03-15T19:47:40.837Z,3.58
2023-03-15T19:50:43.342Z,3.59
2023-03-15T19:53:46.502Z,3.62
2023-03-15T19:56:49.029Z,3.62
2023-03-15T19:59:50.578Z,3.62
2023-03-15T20:02:52.626Z,3.64
2023-03-15T20:05:56.416Z,3.59
2023-03-15T20:09:00.121Z,3.60
2023-03-15T20:12:02.758Z,3.60
2023-03-15T20:15:09.431Z,3.58
2023-03-15T20:18:24.273Z,3.56
2023-03-15T20:21:29.398Z,3.51
2023-03-15T20:24:32.486Z,3.47
2023-03-15T20:27:38.677Z,3.45
2023-03-15T20:30:45.489Z,3.45
2023-03-15T20:33:52.623Z,3.45
2023-03-15T20:36:54.740Z,3.40
2023-03-15T20:39:57.192Z,3.40
2023-03-15T20:43:00.568Z,3.38
2023-03-15T20:46:04.341Z,3.40
2023-03-15T20:49:07.055Z,3.37
2023-03-15T20:52:11.559Z,3.39
2023-03-15T20:55:16.881Z,3.37
2023-03-15T20:58:21.565Z,3.35
2023-03-15T21:01:25.985Z,3.34
2023-03-15T21:04:28.468Z,3.33
2023-03-15T21:07:34.687Z,3.29
2023-03-15T21:10:37.534Z,3.24
2023-03-15T21:13:40.924Z,3.21
2023-03-15T21:16:42.836Z,3.17
2023-03-15T21:19:45.387Z,3.12
2023-03-15T21:22:47.418Z,3.05
2023-03-15T21:25:56.651Z,2.98
2023-03-15T21:28:59.268Z,2.91
2023-03-15T21:32:01.006Z,2.84
2023-03-15T21:35:02.650Z,2.78
2023-03-15T21:38:04.423Z,2.68
2023-03-15T21:41:09.096Z,2.62
2023-03-15T21:44:11.467Z,2.56
2023-03-15T21:47:14.588Z,2.49
2023-03-15T21:55:03.316Z,2.27
2023-03-15T21:58:05.196Z,2.26
2023-03-15T22:01:09.355Z,2.24
2023-03-15T22:04:11.119Z,2.22
2023-03-15T22:07:12.805Z,2.19
2023-03-15T22:10:18.783Z,2.16
2023-03-15T22:13:20.976Z,2.13
2023-03-15T22:16:22.620Z,2.11
2023-03-15T22:19:24.283Z,2.10
2023-03-15T22:22:26.021Z,2.10
2023-03-15T22:25:27.597Z,2.09
2023-03-15T22:28:29.184Z,2.09
2023-03-15T22:31:33.659Z,2.09
2023-03-15T22:34:35.590Z,2.05
2023-03-15T22:37:37.507Z,2.07
2023-03-15T22:40:40.803Z,2.07
2023-03-15T22:43:42.453Z,2.05
2023-03-15T22:46:44.043Z,2.06
2023-03-15T22:49:45.701Z,2.05
2023-03-15T22:52:47.861Z,2.07
2023-03-15T22:55:49.433Z,2.08
2023-03-15T22:58:52.084Z,2.07
2023-03-15T23:01:53.642Z,2.05
2023-03-15T23:04:55.347Z,2.05
2023-03-15T23:07:56.986Z,1.99
2023-03-15T23:10:58.892Z,1.98
2023-03-15T23:14:00.448Z,1.95
2023-03-15T23:17:05.154Z,1.91
2023-03-15T23:20:07.593Z,1.87
2023-03-15T23:23:09.469Z,1.84
2023-03-15T23:26:12.922Z,1.79
2023-03-15T23:29:24.549Z,1.73
2023-03-15T23:32:29.840Z,1.70
2023-03-15T23:39:07.883Z,1.59
2023-03-15T23:42:10.392Z,1.49
2023-03-15T23:45:17.712Z,1.47
2023-03-15T23:48:22.984Z,1.41
2023-03-15T23:51:27.413Z,1.34
2023-03-15T23:54:29.755Z,1.31
2023-03-15T23:57:32.596Z,1.25
